Overview Statistics Trail Chart Weather Telemetry Raw packets
 

This is the latest recevied weather packets stored in our database for station/object ED3YAB-7. If no packets are shown the sender has not sent any weather packets the latest 10 day(s).

<< 4 5 6 7 8 9 10 >>
Time Temp. Humidity Pressure Rain* Wind** Luminosity Snow
1778060647 16.67° C 44% 1017.8 hPa - - - -
1778060639 16.67° C 44% 1017.8 hPa - - - -
1778059439 16.11° C 46% 1017.9 hPa - - - -
1778058246 16.11° C 47% 1018.1 hPa - - - -
1778058239 16.11° C 47% 1018.1 hPa - - - -
1778057046 15.56° C 48% 1018.1 hPa - - - -
1778057039 15.56° C 48% 1018.1 hPa - - - -
1778055839 15° C 51% 1018 hPa - - - -
1778054639 14.44° C 51% 1017.8 hPa - - - -
1778053438 13.89° C 54% 1017.7 hPa - - - -
1778052238 13.33° C 57% 1017.8 hPa - - - -
1778051047 12.22° C 59% 1017.8 hPa - - - -
1778051040 12.22° C 59% 1017.8 hPa - - - -
1778049847 11.67° C 60% 1017.7 hPa - - - -
1778049840 11.67° C 60% 1017.7 hPa - - - -
1778048640 11.11° C 63% 1017.8 hPa - - - -
1778047439 10° C 67% 1017.7 hPa - - - -
1778046239 8.89° C 68% 1017.6 hPa - - - -
1778045039 9.44° C 68% 1017.3 hPa - - - -
1778043839 7.78° C 69% 1017.2 hPa - - - -
1778042639 7.78° C 70% 1016.9 hPa - - - -
1778041439 8.33° C 69% 1017 hPa - - - -
1778040239 8.89° C 69% 1016.9 hPa - - - -
1778039038 8.33° C 71% 1016.8 hPa - - - -
1778037838 8.89° C 71% 1016.6 hPa - - - -

* Rain since midnight (hover to see other rain measurements)
** Current wind speed in m/s (hover to see current wind gust speed)